Time;durP1;ratioP1;P1;durP2;ratioP2;P2;SDS_P1;SDS_P2;PMS_P1;PMS_P2;Temp;Humidity;BMP_temperature;BMP_pressure;BME280_temperature;BME280_humidity;BME280_pressure;Samples;Min_cycle;Max_cycle;Signal;HPM_P1;HPM_P2
2023/12/18 00:01:26;;;;;;;28.43;25.63;;;0.30;99.90;;;;;;5028321;28;20436;-76
2023/12/18 00:03:53;;;;;;;27.73;24.97;;;0.30;99.90;;;;;;5031950;28;20850;-76
2023/12/18 00:06:19;;;;;;;29.67;26.50;;;0.20;99.90;;;;;;5027160;28;20993;-76
2023/12/18 00:08:46;;;;;;;28.00;25.27;;;0.20;99.90;;;;;;5026006;28;20934;-76
2023/12/18 00:11:14;;;;;;;28.60;25.93;;;0.20;99.90;;;;;;5026402;28;20434;-77
2023/12/18 00:13:41;;;;;;;28.50;25.90;;;0.20;99.90;;;;;;5025412;28;20871;-76
2023/12/18 00:16:09;;;;;;;27.27;24.77;;;0.20;99.90;;;;;;5028108;28;20442;-77
2023/12/18 00:18:36;;;;;;;28.47;25.37;;;0.10;99.90;;;;;;5028902;28;21024;-76
2023/12/18 00:21:03;;;;;;;27.60;25.10;;;0.10;99.90;;;;;;5030578;28;20452;-76
2023/12/18 00:23:30;;;;;;;28.53;25.83;;;0.10;99.90;;;;;;5030430;28;20454;-76
2023/12/18 00:25:57;;;;;;;27.70;25.20;;;0.10;99.90;;;;;;5030513;28;20456;-76
2023/12/18 00:28:23;;;;;;;27.83;25.23;;;0.10;99.90;;;;;;5026697;28;20443;-76
2023/12/18 00:30:50;;;;;;;26.30;23.90;;;0.00;99.90;;;;;;5023100;28;20477;-76
2023/12/18 00:33:18;;;;;;;25.90;23.67;;;0.00;99.90;;;;;;5031711;28;20521;-76
2023/12/18 00:35:45;;;;;;;25.63;23.53;;;0.00;99.90;;;;;;5028611;28;20445;-76
2023/12/18 00:38:12;;;;;;;26.23;23.77;;;0.00;99.90;;;;;;5022065;28;20453;-76
2023/12/18 00:40:39;;;;;;;26.70;24.40;;;0.00;99.90;;;;;;5027281;28;20502;-76
2023/12/18 00:43:05;;;;;;;26.57;24.07;;;0.00;99.90;;;;;;5030415;28;20453;-76
2023/12/18 00:45:32;;;;;;;27.67;25.07;;;0.00;99.90;;;;;;5025057;28;20451;-76
2023/12/18 00:47:59;;;;;;;26.90;24.27;;;0.00;99.90;;;;;;5023745;28;20515;-76
2023/12/18 00:50:27;;;;;;;28.43;25.60;;;0.00;99.90;;;;;;5024282;28;20976;-77
2023/12/18 00:52:54;;;;;;;27.30;24.47;;;0.10;99.90;;;;;;5026115;28;20488;-76
2023/12/18 00:55:20;;;;;;;28.00;25.30;;;0.10;99.90;;;;;;5028542;28;21005;-76
2023/12/18 00:57:47;;;;;;;27.57;24.87;;;0.10;99.90;;;;;;5028838;28;20453;-76
2023/12/18 01:00:14;;;;;;;30.20;27.27;;;0.10;99.90;;;;;;5022738;28;20487;-76
2023/12/18 01:02:41;;;;;;;28.97;26.07;;;0.10;99.90;;;;;;5028440;28;20491;-76
2023/12/18 01:05:09;;;;;;;30.80;27.50;;;0.10;99.90;;;;;;5027337;28;20429;-76
2023/12/18 01:07:37;;;;;;;31.77;28.10;;;0.00;99.90;;;;;;5025072;28;20451;-75
2023/12/18 01:10:05;;;;;;;33.67;30.20;;;0.00;99.90;;;;;;5024174;28;20444;-76
2023/12/18 01:12:31;;;;;;;31.77;28.47;;;0.00;99.90;;;;;;5024643;28;20476;-76
2023/12/18 01:14:58;;;;;;;30.63;27.63;;;0.00;99.90;;;;;;5027150;28;20436;-76
2023/12/18 01:17:25;;;;;;;30.00;27.00;;;0.00;99.90;;;;;;5027117;28;20914;-76
2023/12/18 01:19:52;;;;;;;28.37;25.47;;;-0.10;99.90;;;;;;5028232;28;20481;-76
2023/12/18 01:22:18;;;;;;;28.47;25.57;;;-0.10;99.90;;;;;;5024487;28;20544;-76
2023/12/18 01:24:46;;;;;;;28.77;25.90;;;-0.10;99.90;;;;;;5029755;28;20524;-76
2023/12/18 01:27:13;;;;;;;29.33;26.23;;;-0.10;99.90;;;;;;5029695;28;20475;-76
2023/12/18 01:29:40;;;;;;;28.87;25.80;;;-0.10;99.90;;;;;;5017309;28;20466;-76
2023/12/18 01:32:08;;;;;;;28.33;25.40;;;-0.10;99.90;;;;;;5026500;28;20440;-76
2023/12/18 01:34:35;;;;;;;28.13;25.53;;;-0.10;99.90;;;;;;5025826;28;20535;-76
2023/12/18 01:37:03;;;;;;;27.37;25.00;;;-0.20;99.90;;;;;;5028818;28;20432;-76
2023/12/18 01:39:31;;;;;;;27.77;25.17;;;-0.20;99.90;;;;;;5024549;28;20478;-76
2023/12/18 01:41:59;;;;;;;28.10;25.40;;;-0.20;99.90;;;;;;5023480;28;20448;-76
2023/12/18 01:44:26;;;;;;;27.60;24.90;;;-0.20;99.90;;;;;;5027376;28;20498;-76
2023/12/18 01:46:54;;;;;;;27.97;25.37;;;-0.20;99.90;;;;;;5025176;28;20881;-76
2023/12/18 01:49:21;;;;;;;30.03;27.03;;;-0.20;99.90;;;;;;5024599;28;20476;-76
2023/12/18 01:51:48;;;;;;;28.27;25.40;;;-0.30;99.90;;;;;;5025532;28;20464;-76
2023/12/18 01:54:15;;;;;;;26.50;24.00;;;-0.30;99.90;;;;;;5027620;28;20995;-76
2023/12/18 01:56:42;;;;;;;26.90;24.40;;;-0.30;99.90;;;;;;5027812;28;20468;-76
2023/12/18 01:59:11;;;;;;;26.57;24.17;;;-0.30;99.90;;;;;;5029205;28;20480;-76
2023/12/18 02:01:38;;;;;;;26.27;24.00;;;-0.30;99.90;;;;;;5022647;28;20465;-76
2023/12/18 02:04:05;;;;;;;27.23;24.73;;;-0.30;99.90;;;;;;5025629;28;20445;-76
2023/12/18 02:06:33;;;;;;;25.23;23.03;;;-0.30;99.90;;;;;;5025267;28;20445;-76
2023/12/18 02:09:00;;;;;;;25.50;23.23;;;-0.30;99.90;;;;;;5024714;28;20482;-76
2023/12/18 02:11:27;;;;;;;25.70;23.47;;;-0.30;99.90;;;;;;5026886;28;20962;-76
2023/12/18 02:13:53;;;;;;;25.90;23.60;;;-0.30;99.90;;;;;;5028628;28;20453;-76
2023/12/18 02:16:22;;;;;;;25.80;23.43;;;-0.30;99.90;;;;;;5027622;28;20776;-76
2023/12/18 02:18:49;;;;;;;25.10;22.83;;;-0.30;99.90;;;;;;5025729;28;20444;-76
2023/12/18 02:21:19;;;;;;;25.33;23.13;;;-0.30;99.90;;;;;;5028931;28;21030;-76
2023/12/18 02:23:47;;;;;;;25.73;23.50;;;-0.30;99.90;;;;;;5027855;28;20539;-76
2023/12/18 02:26:15;;;;;;;26.03;23.63;;;-0.30;99.90;;;;;;5032721;28;20966;-76
2023/12/18 02:28:43;;;;;;;25.87;23.63;;;-0.30;99.90;;;;;;5027216;28;20450;-76
2023/12/18 02:31:13;;;;;;;24.63;22.57;;;-0.30;99.90;;;;;;5022472;28;20779;-76
2023/12/18 02:33:40;;;;;;;24.87;22.87;;;-0.30;99.90;;;;;;5034051;28;20442;-76
2023/12/18 02:36:08;;;;;;;26.07;23.70;;;-0.30;99.90;;;;;;5032499;28;20449;-76
2023/12/18 02:38:35;;;;;;;26.33;23.93;;;-0.30;99.90;;;;;;5028898;28;20450;-76
2023/12/18 02:41:03;;;;;;;26.47;23.97;;;-0.20;99.90;;;;;;5026400;28;20538;-76
2023/12/18 02:43:30;;;;;;;24.90;22.70;;;-0.30;99.90;;;;;;5032001;28;20522;-76
2023/12/18 02:45:56;;;;;;;26.57;24.13;;;-0.20;99.90;;;;;;5032270;28;20451;-76
2023/12/18 02:48:23;;;;;;;26.10;23.90;;;-0.20;99.90;;;;;;5029178;28;20441;-76
2023/12/18 02:50:50;;;;;;;25.17;22.77;;;-0.20;99.90;;;;;;5030293;28;20461;-76
2023/12/18 02:53:17;;;;;;;25.87;23.33;;;-0.30;99.90;;;;;;5025744;28;20489;-76
2023/12/18 02:55:44;;;;;;;24.53;22.43;;;-0.30;99.90;;;;;;5028801;28;20452;-76
2023/12/18 02:58:12;;;;;;;25.80;23.57;;;-0.40;99.90;;;;;;5024185;28;20498;-76
2023/12/18 03:00:39;;;;;;;23.83;21.90;;;-0.30;99.90;;;;;;5024433;28;20484;-76
2023/12/18 03:03:06;;;;;;;24.53;22.43;;;-0.40;99.90;;;;;;5033653;28;21013;-76
2023/12/18 03:05:33;;;;;;;25.17;23.17;;;-0.40;99.90;;;;;;5029341;28;21050;-76
2023/12/18 03:07:59;;;;;;;25.17;22.87;;;-0.50;99.90;;;;;;5031557;28;21005;-76
2023/12/18 03:10:26;;;;;;;24.77;22.63;;;-0.50;99.90;;;;;;5031626;28;20946;-76
2023/12/18 03:12:53;;;;;;;24.33;22.17;;;-0.50;99.90;;;;;;5025026;28;21219;-76
2023/12/18 03:15:21;;;;;;;24.50;22.43;;;-0.50;99.90;;;;;;5032108;28;20452;-76
2023/12/18 03:17:48;;;;;;;23.73;21.83;;;-0.60;99.90;;;;;;5024676;28;20444;-76
2023/12/18 03:20:15;;;;;;;23.37;21.47;;;-0.60;99.90;;;;;;5031394;28;20572;-76
2023/12/18 03:22:42;;;;;;;23.77;21.77;;;-0.60;99.90;;;;;;5029054;28;20438;-76
2023/12/18 03:25:09;;;;;;;23.27;21.27;;;-0.60;99.90;;;;;;5030176;28;20460;-76
2023/12/18 03:27:36;;;;;;;23.23;21.33;;;-0.60;99.90;;;;;;5020315;28;20511;-76
2023/12/18 03:30:03;;;;;;;23.67;21.87;;;-0.60;99.90;;;;;;5023158;28;20522;-76
2023/12/18 03:32:31;;;;;;;23.67;21.57;;;-0.60;99.90;;;;;;5032045;28;20514;-76
2023/12/18 03:34:58;;;;;;;24.80;22.50;;;-0.70;99.90;;;;;;5031401;28;20446;-76
2023/12/18 03:37:25;;;;;;;23.77;21.90;;;-0.60;99.90;;;;;;5031269;28;20454;-76
2023/12/18 03:39:51;;;;;;;24.37;22.20;;;-0.60;99.90;;;;;;5030698;28;20529;-76
2023/12/18 03:42:18;;;;;;;24.37;22.50;;;-0.50;99.90;;;;;;5034321;28;20453;-76
2023/12/18 03:44:46;;;;;;;23.47;21.57;;;-0.50;99.90;;;;;;5028602;28;20919;-76
2023/12/18 03:47:13;;;;;;;23.13;21.23;;;-0.50;99.90;;;;;;5031955;28;20446;-75
2023/12/18 03:49:41;;;;;;;25.03;22.80;;;-0.50;99.90;;;;;;5032233;28;20463;-76
2023/12/18 03:52:08;;;;;;;25.40;23.17;;;-0.50;99.90;;;;;;5025656;28;20486;-75
2023/12/18 03:54:35;;;;;;;24.70;22.60;;;-0.50;99.90;;;;;;5031552;28;20483;-78
2023/12/18 03:57:02;;;;;;;23.77;21.93;;;-0.50;99.90;;;;;;5026030;28;20440;-78
2023/12/18 03:59:28;;;;;;;23.60;21.60;;;-0.50;99.90;;;;;;5025205;28;20478;-76
2023/12/18 04:01:55;;;;;;;25.20;22.90;;;-0.50;99.90;;;;;;5022585;28;20473;-76
2023/12/18 04:04:22;;;;;;;24.50;22.50;;;-0.50;99.90;;;;;;5022709;28;20451;-76
2023/12/18 04:06:50;;;;;;;25.70;23.40;;;-0.50;99.90;;;;;;5030865;28;20506;-77
2023/12/18 04:09:17;;;;;;;24.77;22.67;;;-0.60;99.90;;;;;;5032383;28;20522;-77
2023/12/18 04:11:44;;;;;;;23.67;21.87;;;-0.60;99.90;;;;;;5029036;28;20440;-77
2023/12/18 04:14:11;;;;;;;23.87;21.87;;;-0.60;99.90;;;;;;5032328;28;20455;-78
2023/12/18 04:16:37;;;;;;;25.00;22.97;;;-0.50;99.90;;;;;;5030092;28;20901;-79
2023/12/18 04:19:04;;;;;;;24.17;22.13;;;-0.50;99.90;;;;;;5027766;28;21011;-77
2023/12/18 04:21:31;;;;;;;24.40;22.47;;;-0.50;99.90;;;;;;5028349;28;20554;-77
2023/12/18 04:23:59;;;;;;;23.23;21.40;;;-0.50;99.90;;;;;;5028961;28;20469;-77
2023/12/18 04:26:26;;;;;;;23.60;21.73;;;-0.50;99.90;;;;;;5034134;28;20829;-78
2023/12/18 04:28:53;;;;;;;24.83;22.63;;;-0.50;99.90;;;;;;5032520;28;20449;-77
2023/12/18 04:31:21;;;;;;;24.57;22.60;;;-0.50;99.90;;;;;;5024633;28;20456;-77
2023/12/18 04:33:47;;;;;;;24.80;22.73;;;-0.60;99.90;;;;;;5039228;28;20503;-78
2023/12/18 04:36:14;;;;;;;24.40;22.40;;;-0.50;99.90;;;;;;5028641;28;20955;-78
2023/12/18 04:38:42;;;;;;;23.90;21.90;;;-0.50;99.90;;;;;;5027331;28;20443;-76
2023/12/18 04:41:18;;;;;;;23.93;21.90;;;-0.50;99.90;;;;;;5031338;28;20572;-76
2023/12/18 04:43:45;;;;;;;23.07;21.23;;;-0.40;99.90;;;;;;5027664;28;20449;-76
2023/12/18 04:46:11;;;;;;;23.10;21.30;;;-0.40;99.90;;;;;;5025241;28;20464;-76
2023/12/18 04:48:38;;;;;;;22.80;20.83;;;-0.40;99.90;;;;;;5029958;28;20460;-76
2023/12/18 04:51:05;;;;;;;22.27;20.47;;;-0.40;99.90;;;;;;5021170;28;20440;-77
2023/12/18 04:53:33;;;;;;;22.70;21.00;;;-0.40;99.90;;;;;;5045141;28;20458;-76
2023/12/18 04:55:59;;;;;;;21.80;20.13;;;-0.50;99.90;;;;;;5031420;28;20432;-75
2023/12/18 04:58:28;;;;;;;22.43;20.67;;;-0.50;99.90;;;;;;5033280;28;20451;-76
2023/12/18 05:00:54;;;;;;;23.07;21.17;;;-0.50;99.90;;;;;;5027261;28;21031;-76
2023/12/18 05:03:21;;;;;;;22.37;20.57;;;-0.50;99.90;;;;;;5030678;28;20439;-76
2023/12/18 05:05:48;;;;;;;22.70;20.87;;;-0.50;99.90;;;;;;5026482;28;20502;-76
2023/12/18 05:08:15;;;;;;;22.17;20.23;;;-0.40;99.90;;;;;;5027499;28;20461;-76
2023/12/18 05:10:41;;;;;;;22.20;20.50;;;-0.40;99.90;;;;;;5028946;28;20513;-76
2023/12/18 05:13:08;;;;;;;22.63;20.93;;;-0.40;99.90;;;;;;5029177;28;20932;-76
2023/12/18 05:15:37;;;;;;;21.20;19.33;;;-0.30;99.90;;;;;;5024619;28;20483;-76
2023/12/18 05:18:05;;;;;;;22.23;20.43;;;-0.30;99.90;;;;;;5023154;28;20436;-76
2023/12/18 05:20:32;;;;;;;20.97;19.37;;;-0.30;99.90;;;;;;5029226;28;20480;-76
2023/12/18 05:22:59;;;;;;;22.23;20.53;;;-0.30;99.90;;;;;;5023611;28;20990;-76
2023/12/18 05:25:25;;;;;;;20.03;18.43;;;-0.30;99.90;;;;;;5021246;28;20818;-76
2023/12/18 05:27:52;;;;;;;20.23;18.73;;;-0.30;99.90;;;;;;5031147;28;20494;-76
2023/12/18 05:30:19;;;;;;;20.43;18.93;;;-0.30;99.90;;;;;;5030810;28;20460;-76
2023/12/18 05:32:47;;;;;;;21.00;19.13;;;-0.30;99.90;;;;;;5024956;28;20506;-76
2023/12/18 05:35:14;;;;;;;20.37;18.77;;;-0.30;99.90;;;;;;5024993;28;20856;-76
2023/12/18 05:37:41;;;;;;;20.77;19.27;;;-0.30;99.90;;;;;;5024324;28;20439;-76
2023/12/18 05:40:09;;;;;;;21.33;19.63;;;-0.30;99.90;;;;;;5027741;28;20516;-76
2023/12/18 05:42:36;;;;;;;21.77;19.90;;;-0.30;99.90;;;;;;5029432;28;20548;-76
2023/12/18 05:45:03;;;;;;;20.17;18.67;;;-0.30;99.90;;;;;;5025959;28;20485;-76
2023/12/18 05:47:30;;;;;;;19.50;18.20;;;-0.20;99.90;;;;;;5030530;28;20967;-76
2023/12/18 05:49:58;;;;;;;20.00;18.57;;;-0.20;99.90;;;;;;5033784;28;20507;-76
2023/12/18 05:52:26;;;;;;;20.97;19.23;;;-0.20;99.90;;;;;;5034425;28;20440;-76
2023/12/18 05:54:53;;;;;;;20.33;18.93;;;-0.20;99.90;;;;;;5034672;28;20487;-76
2023/12/18 05:57:20;;;;;;;20.03;18.73;;;-0.30;99.90;;;;;;5027921;28;20434;-76
2023/12/18 05:59:47;;;;;;;19.27;17.97;;;-0.30;99.90;;;;;;5025664;28;21004;-76
2023/12/18 06:02:13;;;;;;;18.93;17.73;;;-0.30;99.90;;;;;;5026580;28;20533;-75
2023/12/18 06:04:41;;;;;;;20.37;18.77;;;-0.40;99.90;;;;;;5030571;28;20445;-78
2023/12/18 06:07:09;;;;;;;19.70;18.27;;;-0.40;99.90;;;;;;5031148;28;20498;-77
2023/12/18 06:09:36;;;;;;;20.40;18.90;;;-0.30;99.90;;;;;;5024714;28;20518;-76
2023/12/18 06:12:04;;;;;;;19.50;17.90;;;-0.30;99.90;;;;;;5030793;28;20436;-76
2023/12/18 06:14:30;;;;;;;20.37;18.77;;;-0.30;99.90;;;;;;5026507;28;20432;-75
2023/12/18 06:16:57;;;;;;;19.90;18.40;;;-0.30;99.90;;;;;;5027847;28;20450;-76
2023/12/18 06:19:24;;;;;;;19.73;18.23;;;-0.20;99.90;;;;;;5026332;28;20462;-76
2023/12/18 06:21:51;;;;;;;19.80;18.40;;;-0.20;99.90;;;;;;5030660;28;20503;-77
2023/12/18 06:24:19;;;;;;;18.87;17.57;;;-0.10;99.90;;;;;;5028009;28;20549;-76
2023/12/18 06:26:45;;;;;;;18.83;17.43;;;-0.10;99.90;;;;;;5031265;28;20440;-76
2023/12/18 06:29:12;;;;;;;18.80;17.50;;;0.00;99.90;;;;;;5031171;28;20977;-76
2023/12/18 06:31:39;;;;;;;18.60;17.30;;;0.10;99.90;;;;;;5027593;28;20931;-76
2023/12/18 06:34:06;;;;;;;17.97;16.77;;;0.10;99.90;;;;;;5033719;28;20466;-76
2023/12/18 06:36:33;;;;;;;19.03;17.80;;;0.10;99.90;;;;;;5025883;28;20441;-76
2023/12/18 06:39:00;;;;;;;18.73;17.43;;;0.20;99.90;;;;;;5028739;28;20475;-75
2023/12/18 06:41:28;;;;;;;18.50;17.30;;;0.20;99.90;;;;;;5028236;28;20481;-76
2023/12/18 06:43:55;;;;;;;18.40;17.17;;;0.20;99.90;;;;;;5033867;28;20861;-76
2023/12/18 06:46:22;;;;;;;17.87;16.77;;;0.20;99.90;;;;;;5026248;28;20470;-76
2023/12/18 06:48:49;;;;;;;18.87;17.57;;;0.30;99.90;;;;;;5025758;28;20830;-76
2023/12/18 06:51:16;;;;;;;17.80;16.70;;;0.30;99.90;;;;;;5029453;28;20462;-76
2023/12/18 06:53:43;;;;;;;17.43;16.43;;;0.30;99.90;;;;;;5027330;28;20480;-76
2023/12/18 06:56:09;;;;;;;18.93;17.63;;;0.30;99.90;;;;;;5023805;28;20440;-77
2023/12/18 06:58:37;;;;;;;18.83;17.53;;;0.20;99.90;;;;;;5034122;28;21021;-77
2023/12/18 07:01:04;;;;;;;19.03;17.73;;;0.20;99.90;;;;;;5030557;28;20469;-76
2023/12/18 07:03:31;;;;;;;19.20;17.90;;;0.20;99.90;;;;;;5031455;28;20969;-75
2023/12/18 07:05:58;;;;;;;18.43;17.13;;;0.20;99.90;;;;;;5028513;28;20440;-76
2023/12/18 07:08:25;;;;;;;18.77;17.20;;;0.20;99.90;;;;;;5027842;28;20433;-76
2023/12/18 07:10:52;;;;;;;18.63;17.23;;;0.10;99.90;;;;;;5033066;28;20460;-76
2023/12/18 07:13:18;;;;;;;18.60;17.30;;;0.10;99.90;;;;;;5031785;28;20495;-76
2023/12/18 07:15:46;;;;;;;18.20;17.00;;;0.00;99.90;;;;;;5028520;28;20860;-76
2023/12/18 07:18:13;;;;;;;18.97;17.67;;;0.00;99.90;;;;;;5029051;28;20444;-76
2023/12/18 07:20:41;;;;;;;18.50;17.20;;;-0.10;99.90;;;;;;5030976;28;20484;-76
2023/12/18 07:23:10;;;;;;;18.20;16.90;;;0.00;99.90;;;;;;5029058;28;20433;-76
2023/12/18 07:25:37;;;;;;;18.43;17.03;;;0.00;99.90;;;;;;5041220;28;20441;-75
2023/12/18 07:28:07;;;;;;;18.23;17.03;;;-0.10;99.90;;;;;;5027741;28;20441;-76
2023/12/18 07:30:34;;;;;;;18.37;17.10;;;-0.10;99.90;;;;;;5032537;28;20456;-76
2023/12/18 07:33:03;;;;;;;17.93;16.57;;;-0.10;99.90;;;;;;5031259;28;20444;-76
2023/12/18 07:35:30;;;;;;;18.70;17.30;;;0.00;99.90;;;;;;5031225;28;20452;-76
2023/12/18 07:37:56;;;;;;;17.70;16.50;;;0.00;99.90;;;;;;5031118;28;20975;-76
2023/12/18 07:40:23;;;;;;;18.17;16.87;;;0.00;99.90;;;;;;5024938;28;20521;-76
2023/12/18 07:42:50;;;;;;;18.80;17.50;;;0.10;99.90;;;;;;5031472;28;20436;-76
2023/12/18 07:45:17;;;;;;;18.00;16.70;;;0.10;99.90;;;;;;5032501;28;20498;-76
2023/12/18 07:47:44;;;;;;;18.67;17.30;;;0.20;99.90;;;;;;5032668;28;20449;-76
2023/12/18 07:50:12;;;;;;;18.37;17.07;;;0.20;99.90;;;;;;5026293;28;20468;-76
2023/12/18 07:52:39;;;;;;;18.20;16.90;;;0.30;99.90;;;;;;5032492;28;20792;-76
2023/12/18 07:55:06;;;;;;;18.93;17.53;;;0.40;99.90;;;;;;5031924;28;20470;-76
2023/12/18 07:57:33;;;;;;;17.37;16.27;;;0.50;99.90;;;;;;5031020;28;20580;-76
2023/12/18 08:00:00;;;;;;;18.20;17.00;;;0.60;99.90;;;;;;5026780;28;20476;-76
2023/12/18 08:02:27;;;;;;;17.43;16.20;;;0.80;99.90;;;;;;5031220;28;20487;-76
2023/12/18 08:04:53;;;;;;;17.07;15.80;;;0.90;99.90;;;;;;5026050;28;20438;-77
2023/12/18 08:07:21;;;;;;;17.80;16.60;;;1.00;99.90;;;;;;5025718;28;20473;-76
2023/12/18 08:09:48;;;;;;;17.40;16.30;;;1.10;99.90;;;;;;5026194;28;21021;-77
2023/12/18 08:12:15;;;;;;;18.27;16.97;;;1.30;99.90;;;;;;5031257;28;20868;-77
2023/12/18 08:14:43;;;;;;;18.03;16.83;;;1.40;99.90;;;;;;5030680;28;20196;-76
2023/12/18 08:17:12;;;;;;;17.00;15.77;;;1.50;99.90;;;;;;5030835;28;20659;-76
2023/12/18 08:19:39;;;;;;;17.23;16.13;;;1.70;99.90;;;;;;5031887;28;20455;-77
2023/12/18 08:22:05;;;;;;;17.40;16.10;;;1.90;99.90;;;;;;5030697;28;20219;-77
2023/12/18 08:24:34;;;;;;;17.80;16.43;;;2.00;99.90;;;;;;5032516;28;20223;-77
2023/12/18 08:27:02;;;;;;;17.03;15.83;;;2.20;99.90;;;;;;5032839;28;20249;-77
2023/12/18 08:29:29;;;;;;;17.03;15.93;;;2.30;99.90;;;;;;5034509;28;20702;-78
2023/12/18 08:31:56;;;;;;;17.83;16.53;;;2.60;99.90;;;;;;5035639;28;20212;-78
2023/12/18 08:34:23;;;;;;;18.63;17.17;;;2.80;99.90;;;;;;5027728;28;20207;-78
2023/12/18 08:36:49;;;;;;;17.70;16.50;;;2.90;99.90;;;;;;5029932;28;20223;-78
2023/12/18 08:39:16;;;;;;;18.57;17.37;;;3.10;99.90;;;;;;5031055;28;20240;-78
2023/12/18 08:41:46;;;;;;;18.37;17.07;;;3.30;99.90;;;;;;5030238;28;20211;-79
2023/12/18 08:44:12;;;;;;;16.93;15.83;;;3.40;99.90;;;;;;5035602;28;20658;-78
2023/12/18 08:46:39;;;;;;;17.13;16.00;;;3.50;99.90;;;;;;5032319;28;20211;-78
2023/12/18 08:49:06;;;;;;;16.77;15.68;;;3.60;99.90;;;;;;5024032;28;20477;-78
2023/12/18 08:51:33;;;;;;;13.43;12.53;;;3.70;99.90;;;;;;5030979;28;20668;-77
2023/12/18 08:54:04;;;;;;;13.50;12.50;;;3.70;99.90;;;;;;5029176;28;20199;-78
2023/12/18 08:56:31;;;;;;;16.87;15.70;;;3.70;99.90;;;;;;5032349;28;20204;-78
2023/12/18 08:58:59;;;;;;;16.23;15.10;;;3.70;99.90;;;;;;5035195;28;20242;-79
2023/12/18 09:01:26;;;;;;;16.10;15.07;;;3.60;99.90;;;;;;5032982;28;20709;-77
2023/12/18 09:03:53;;;;;;;16.93;15.73;;;3.60;99.90;;;;;;5034068;28;20193;-78
2023/12/18 09:06:20;;;;;;;16.87;15.77;;;3.60;99.90;;;;;;5026113;28;20242;-77
2023/12/18 09:08:47;;;;;;;16.50;15.50;;;3.60;99.90;;;;;;5023034;28;20204;-77
2023/12/18 09:11:14;;;;;;;15.50;14.50;;;3.60;99.90;;;;;;5028942;28;20188;-77
2023/12/18 09:13:41;;;;;;;15.23;14.27;;;3.50;99.90;;;;;;5030293;28;20234;-77
2023/12/18 09:16:09;;;;;;;15.67;14.53;;;3.40;99.90;;;;;;5026888;28;20204;-76
2023/12/18 09:18:36;;;;;;;15.50;14.40;;;3.40;99.90;;;;;;5030019;28;20200;-77
2023/12/18 09:21:02;;;;;;;15.07;14.07;;;3.40;99.90;;;;;;5029865;28;20236;-77
2023/12/18 09:23:29;;;;;;;15.13;14.13;;;3.40;99.90;;;;;;5025654;28;20244;-77
2023/12/18 09:25:58;;;;;;;15.67;14.57;;;3.30;99.90;;;;;;5026813;28;20291;-77
2023/12/18 09:28:24;;;;;;;15.27;14.27;;;3.30;99.90;;;;;;5031845;28;20273;-77
2023/12/18 09:30:51;;;;;;;15.13;14.10;;;3.30;99.90;;;;;;5030770;28;20218;-77
2023/12/18 09:33:19;;;;;;;15.33;14.37;;;3.30;99.90;;;;;;5035376;28;20219;-77
2023/12/18 09:35:46;;;;;;;15.27;14.27;;;3.30;99.90;;;;;;5038275;28;20253;-77
2023/12/18 09:38:13;;;;;;;15.63;14.60;;;3.20;99.90;;;;;;5033195;28;20200;-77
2023/12/18 09:40:43;;;;;;;15.80;14.80;;;3.30;99.90;;;;;;5033561;28;20223;-77
2023/12/18 09:43:16;;;;;;;16.10;15.00;;;3.30;99.90;;;;;;5030952;28;20718;-77
2023/12/18 09:45:43;;;;;;;17.00;15.60;;;3.30;99.90;;;;;;5032899;28;20208;-77
2023/12/18 09:48:10;;;;;;;16.47;15.33;;;3.30;99.90;;;;;;5028464;28;20222;-76
2023/12/18 09:50:39;;;;;;;17.03;15.83;;;3.30;99.90;;;;;;5028927;28;20275;-76
2023/12/18 09:53:09;;;;;;;18.70;17.30;;;3.30;99.90;;;;;;5030934;28;20295;-77
2023/12/18 09:55:36;;;;;;;17.87;16.57;;;3.30;99.90;;;;;;5034407;28;20196;-77
2023/12/18 09:58:04;;;;;;;18.07;16.67;;;3.30;99.90;;;;;;5027383;28;20238;-76
2023/12/18 10:00:30;;;;;;;18.50;17.10;;;3.30;99.90;;;;;;5030886;28;20290;-76
2023/12/18 10:02:58;;;;;;;18.17;16.67;;;3.40;99.90;;;;;;5030910;28;20225;-76
2023/12/18 10:05:26;;;;;;;17.40;16.10;;;3.40;99.90;;;;;;5025484;28;20231;-76
2023/12/18 10:07:55;;;;;;;17.80;16.40;;;3.50;99.90;;;;;;5028547;28;20237;-76
2023/12/18 10:10:22;;;;;;;17.90;16.60;;;3.50;99.90;;;;;;5038108;28;20274;-76
2023/12/18 10:12:49;;;;;;;17.90;16.60;;;3.60;99.90;;;;;;5034108;28;20188;-76
2023/12/18 10:15:16;;;;;;;17.23;16.03;;;3.70;99.90;;;;;;5034394;28;20262;-76
2023/12/18 10:17:44;;;;;;;17.73;16.33;;;3.70;99.90;;;;;;5025265;28;20204;-77
2023/12/18 10:20:12;;;;;;;17.47;16.27;;;3.80;99.90;;;;;;5029976;28;20212;-77
2023/12/18 10:22:40;;;;;;;17.60;16.37;;;3.90;99.90;;;;;;5028002;28;20216;-76
2023/12/18 10:25:10;;;;;;;16.93;15.83;;;3.90;99.90;;;;;;5031538;28;20271;-76
2023/12/18 10:27:38;;;;;;;17.13;15.93;;;4.00;99.90;;;;;;5031662;28;20201;-77
2023/12/18 10:30:06;;;;;;;17.07;15.97;;;4.00;99.90;;;;;;5026187;28;20274;-76
2023/12/18 10:32:36;;;;;;;17.10;15.90;;;4.10;99.90;;;;;;5033209;28;20196;-76
2023/12/18 10:35:04;;;;;;;16.83;15.53;;;4.20;99.90;;;;;;5032976;28;20659;-76
2023/12/18 10:37:31;;;;;;;16.87;15.77;;;4.20;99.90;;;;;;5032358;28;20222;-77
2023/12/18 10:40:03;;;;;;;16.50;15.40;;;4.30;99.90;;;;;;5035041;28;20646;-77
2023/12/18 10:42:35;;;;;;;15.67;14.67;;;4.40;99.90;;;;;;5033588;28;20210;-76
2023/12/18 10:45:06;;;;;;;16.33;15.27;;;4.40;99.90;;;;;;5033653;28;20615;-77
2023/12/18 10:47:33;;;;;;;15.77;14.77;;;4.50;99.90;;;;;;5034233;28;20565;-76
2023/12/18 10:50:01;;;;;;;15.93;14.90;;;4.60;99.90;;;;;;5026735;28;20250;-76
2023/12/18 10:52:30;;;;;;;16.10;15.03;;;4.70;99.90;;;;;;5035506;28;20201;-78
2023/12/18 10:54:59;;;;;;;16.07;14.97;;;4.70;99.90;;;;;;5021297;28;20235;-77
2023/12/18 10:57:26;;;;;;;15.50;14.53;;;4.80;99.90;;;;;;5032462;28;20200;-78
2023/12/18 10:59:56;;;;;;;16.43;15.33;;;4.80;99.90;;;;;;5029829;28;20226;-78
2023/12/18 11:02:24;;;;;;;16.47;15.37;;;4.80;99.90;;;;;;5033367;28;20259;-79
2023/12/18 11:04:53;;;;;;;16.23;15.00;;;4.80;99.90;;;;;;5036689;28;20263;-78
2023/12/18 11:07:20;;;;;;;16.73;15.53;;;4.80;99.90;;;;;;5029576;28;20736;-78
2023/12/18 11:09:49;;;;;;;17.00;15.90;;;4.80;99.90;;;;;;5025638;28;20218;-78
2023/12/18 11:12:18;;;;;;;16.50;15.40;;;4.80;99.90;;;;;;5025758;28;20625;-79
2023/12/18 11:14:58;;;;;;;16.07;14.97;;;4.80;99.90;;;;;;5034983;28;20271;-79
2023/12/18 11:17:35;;;;;;;16.43;15.33;;;4.90;99.90;;;;;;5030060;28;20260;-80
2023/12/18 11:20:07;;;;;;;16.60;15.40;;;5.00;99.90;;;;;;5027329;28;20612;-78
2023/12/18 11:22:41;;;;;;;16.13;15.03;;;5.00;99.90;;;;;;5025372;28;20627;-78
2023/12/18 11:25:09;;;;;;;16.03;14.93;;;5.10;99.90;;;;;;5029735;28;20229;-78
2023/12/18 11:27:37;;;;;;;16.03;14.93;;;5.20;99.90;;;;;;5028461;28;20315;-77
2023/12/18 11:30:05;;;;;;;16.07;14.97;;;5.30;99.90;;;;;;5032853;28;20218;-78
2023/12/18 11:32:44;;;;;;;15.63;14.73;;;5.40;99.90;;;;;;5033210;28;20283;-77
2023/12/18 11:35:12;;;;;;;16.23;15.13;;;5.40;99.90;;;;;;5033582;28;20198;-78
2023/12/18 11:37:45;;;;;;;16.37;15.37;;;5.50;99.90;;;;;;5033534;28;20573;-77
2023/12/18 11:40:39;;;;;;;16.13;15.13;;;5.60;99.90;;;;;;5030349;28;20261;-78
2023/12/18 11:43:07;;;;;;;16.70;15.60;;;5.70;99.90;;;;;;5031424;28;20271;-77
2023/12/18 11:45:36;;;;;;;16.40;15.30;;;5.80;99.90;;;;;;5028748;28;20699;-78
2023/12/18 11:48:05;;;;;;;16.23;15.03;;;5.90;99.90;;;;;;5027066;28;20286;-79
2023/12/18 11:50:34;;;;;;;16.83;15.70;;;6.10;99.90;;;;;;5031906;28;20223;-78
2023/12/18 11:53:02;;;;;;;17.73;16.47;;;6.10;99.90;;;;;;5026059;28;20229;-79
2023/12/18 11:55:43;;;;;;;18.83;17.43;;;6.20;99.90;;;;;;5033364;28;20269;-78
2023/12/18 11:58:10;;;;;;;17.87;16.57;;;6.20;99.90;;;;;;5034805;28;20221;-77
2023/12/18 12:00:38;;;;;;;18.50;17.17;;;6.30;99.90;;;;;;5034034;28;20818;-79
2023/12/18 12:03:06;;;;;;;17.60;16.37;;;6.30;99.90;;;;;;5034547;28;20222;-80
2023/12/18 12:05:34;;;;;;;17.10;15.90;;;6.30;99.90;;;;;;5030947;28;20205;-81
2023/12/18 12:08:01;;;;;;;17.53;16.33;;;6.30;99.90;;;;;;5034119;28;20242;-81
2023/12/18 12:10:28;;;;;;;16.70;15.60;;;6.40;99.90;;;;;;5028818;28;20704;-78
2023/12/18 12:12:56;;;;;;;16.53;15.43;;;6.40;99.90;;;;;;5026638;28;20258;-79
2023/12/18 12:15:24;;;;;;;17.47;16.37;;;6.40;99.90;;;;;;5028654;28;20230;-78
2023/12/18 12:17:51;;;;;;;16.20;15.10;;;6.50;99.90;;;;;;5028146;28;20202;-78
2023/12/18 12:20:19;;;;;;;16.50;15.30;;;6.60;99.90;;;;;;5031897;28;20219;-78
2023/12/18 12:22:46;;;;;;;16.17;15.17;;;6.70;99.90;;;;;;5030748;28;20226;-78
2023/12/18 12:25:13;;;;;;;16.93;15.83;;;6.80;99.90;;;;;;5027124;28;20199;-78
2023/12/18 12:27:40;;;;;;;16.50;15.40;;;6.80;99.90;;;;;;5027121;28;20678;-79
2023/12/18 12:30:08;;;;;;;16.27;15.17;;;6.90;99.90;;;;;;5029124;28;20219;-79
2023/12/18 12:32:36;;;;;;;17.05;15.98;;;6.90;99.90;;;;;;5036354;28;20914;-79
2023/12/18 12:35:03;;;;;;;14.18;13.27;;;7.00;99.90;;;;;;5028875;28;20495;-77